createdAt,value
2018-11-20T00:02:18.288Z,14.70
2018-11-20T00:04:44.295Z,15.88
2018-11-20T00:07:10.297Z,13.95
2018-11-20T00:09:37.065Z,16.10
2018-11-20T00:12:03.061Z,17.15
2018-11-20T00:14:29.107Z,16.87
2018-11-20T00:16:55.843Z,17.17
2018-11-20T00:19:22.589Z,18.02
2018-11-20T00:21:49.331Z,17.60
2018-11-20T00:24:15.332Z,17.35
2018-11-20T00:26:41.360Z,17.13
2018-11-20T00:29:08.143Z,18.70
2018-11-20T00:31:34.188Z,14.15
2018-11-20T00:34:00.193Z,17.05
2018-11-20T00:36:26.194Z,19.58
2018-11-20T00:38:52.216Z,19.52
2018-11-20T00:41:18.224Z,17.17
2018-11-20T00:43:44.216Z,16.40
2018-11-20T00:46:10.226Z,17.07
2018-11-20T00:48:36.224Z,16.65
2018-11-20T00:51:02.220Z,20.50
2018-11-20T00:53:28.208Z,20.40
2018-11-20T00:56:30.060Z,18.20
2018-11-20T00:58:56.070Z,16.90
2018-11-20T01:01:22.088Z,18.40
2018-11-20T01:03:55.223Z,18.40
2018-11-20T01:06:21.236Z,19.65
2018-11-20T01:08:47.257Z,20.50
2018-11-20T01:11:13.255Z,18.05
2018-11-20T01:13:39.280Z,20.33
2018-11-20T01:16:05.284Z,18.90
2018-11-20T01:18:31.279Z,20.88
2018-11-20T01:20:58.052Z,19.17
2018-11-20T01:23:24.048Z,18.40
2018-11-20T01:25:50.756Z,16.33
2018-11-20T01:28:16.761Z,18.45
2018-11-20T01:30:42.792Z,18.65
2018-11-20T01:33:08.804Z,19.20
2018-11-20T01:35:34.835Z,18.62
2018-11-20T01:38:00.849Z,17.35
2018-11-20T01:40:26.824Z,19.75
2018-11-20T01:42:52.840Z,19.63
2018-11-20T01:45:18.840Z,16.15
2018-11-20T01:47:44.840Z,15.38
2018-11-20T01:50:10.864Z,19.30
2018-11-20T01:52:36.901Z,18.23
2018-11-20T01:55:02.897Z,16.30
2018-11-20T01:57:28.912Z,19.10
2018-11-20T01:59:54.902Z,18.10
2018-11-20T02:02:20.908Z,18.90
2018-11-20T02:04:46.931Z,17.20
2018-11-20T02:07:12.931Z,17.02
2018-11-20T02:09:38.954Z,15.88
2018-11-20T02:12:04.968Z,19.58
2018-11-20T02:14:30.941Z,14.50
2018-11-20T02:16:56.932Z,18.10
2018-11-20T02:19:22.957Z,19.07
2018-11-20T02:21:48.957Z,16.95
2018-11-20T02:24:14.952Z,16.17
2018-11-20T02:26:41.772Z,19.17
2018-11-20T02:29:07.785Z,16.00
2018-11-20T02:31:33.796Z,19.65
2018-11-20T02:33:59.829Z,18.40
2018-11-20T02:36:25.819Z,17.85
2018-11-20T02:38:51.816Z,18.30
2018-11-20T02:41:18.568Z,18.75
2018-11-20T02:43:45.304Z,19.33
2018-11-20T02:46:12.056Z,18.85
2018-11-20T02:48:38.048Z,16.65
2018-11-20T02:51:04.036Z,19.43
2018-11-20T02:53:30.048Z,18.07
2018-11-20T02:55:56.044Z,17.90
2018-11-20T02:58:22.101Z,17.77
2018-11-20T03:00:48.084Z,17.12
2018-11-20T03:03:14.820Z,18.63
2018-11-20T03:05:41.620Z,17.65
2018-11-20T03:08:07.624Z,17.52
2018-11-20T03:10:33.651Z,18.23
2018-11-20T03:12:59.644Z,20.58
2018-11-20T03:15:26.393Z,16.80
2018-11-20T03:17:52.436Z,17.12
2018-11-20T03:20:18.440Z,17.75
2018-11-20T03:22:44.437Z,16.92
2018-11-20T03:25:26.162Z,17.87
2018-11-20T03:27:52.209Z,19.62
2018-11-20T03:30:18.188Z,18.65
2018-11-20T03:32:44.231Z,19.02
2018-11-20T03:35:10.240Z,16.20
2018-11-20T03:37:36.256Z,17.08
2018-11-20T03:40:02.243Z,19.08
2018-11-20T03:42:28.252Z,19.10
2018-11-20T03:44:54.268Z,18.65
2018-11-20T03:47:20.272Z,18.55
2018-11-20T03:49:46.276Z,18.63
2018-11-20T03:52:12.286Z,18.15
2018-11-20T03:54:38.273Z,20.05
2018-11-20T03:57:04.298Z,17.60
2018-11-20T03:59:30.315Z,16.90
2018-11-20T04:01:56.309Z,18.10
2018-11-20T04:04:22.346Z,18.57
2018-11-20T04:06:48.367Z,18.40
2018-11-20T04:09:14.381Z,18.02
2018-11-20T04:11:40.378Z,17.87
2018-11-20T04:14:07.153Z,19.13
2018-11-20T04:16:33.181Z,17.23
2018-11-20T04:18:59.195Z,18.60
2018-11-20T04:21:25.205Z,16.62
2018-11-20T04:23:51.241Z,17.40
2018-11-20T04:26:17.240Z,18.73
2018-11-20T04:28:43.967Z,17.63
2018-11-20T04:31:22.441Z,19.85
2018-11-20T04:33:48.508Z,17.37
2018-11-20T04:36:14.503Z,18.10
2018-11-20T04:38:40.510Z,17.87
2018-11-20T04:41:06.598Z,17.90
2018-11-20T04:43:32.549Z,17.70
2018-11-20T04:45:58.548Z,18.35
2018-11-20T04:48:25.289Z,18.43
2018-11-20T04:50:51.313Z,18.10
2018-11-20T04:53:18.038Z,19.50
2018-11-20T04:55:44.774Z,18.37
2018-11-20T04:58:10.790Z,19.05
2018-11-20T05:00:36.801Z,19.90
2018-11-20T05:03:02.797Z,20.23
2018-11-20T05:05:28.830Z,18.50
2018-11-20T05:07:54.873Z,18.60
2018-11-20T05:10:20.904Z,18.42
2018-11-20T05:12:46.894Z,19.73
2018-11-20T05:15:12.957Z,16.75
2018-11-20T05:17:38.974Z,18.90
2018-11-20T05:20:04.978Z,20.67
2018-11-20T05:22:30.999Z,14.45
2018-11-20T05:24:57.025Z,17.67
2018-11-20T05:27:23.037Z,19.42
2018-11-20T05:29:49.076Z,19.87
2018-11-20T05:32:15.196Z,18.17
2018-11-20T05:34:41.251Z,17.62
2018-11-20T05:37:07.241Z,17.12
2018-11-20T05:39:33.270Z,18.00
2018-11-20T05:41:59.264Z,19.10
2018-11-20T05:44:25.293Z,20.57
2018-11-20T05:46:51.407Z,18.40
2018-11-20T05:49:17.322Z,19.27
2018-11-20T05:51:43.327Z,19.70
2018-11-20T05:54:09.331Z,19.67
2018-11-20T05:56:35.357Z,20.17
2018-11-20T05:59:01.370Z,17.85
2018-11-20T06:01:27.378Z,17.92
2018-11-20T06:03:53.566Z,19.48
2018-11-20T06:06:19.586Z,19.87
2018-11-20T06:08:45.603Z,18.25
2018-11-20T06:11:12.390Z,21.77
2018-11-20T06:13:38.426Z,22.27
2018-11-20T06:16:04.452Z,19.48
2018-11-20T06:18:30.520Z,18.12
2018-11-20T06:20:57.372Z,18.02
2018-11-20T06:23:23.383Z,18.80
2018-11-20T06:25:50.126Z,21.45
2018-11-20T06:28:16.909Z,19.02
2018-11-20T06:30:42.901Z,19.80
2018-11-20T06:33:09.652Z,20.53
2018-11-20T06:35:35.671Z,19.80
2018-11-20T06:38:08.731Z,18.50
2018-11-20T06:40:35.466Z,20.60
2018-11-20T06:43:01.504Z,22.52
2018-11-20T06:45:27.636Z,19.02
2018-11-20T06:48:00.889Z,20.10
2018-11-20T06:50:26.907Z,16.62
2018-11-20T06:52:52.980Z,20.75
2018-11-20T06:55:18.914Z,20.80
2018-11-20T06:57:44.914Z,18.87
2018-11-20T07:00:11.648Z,20.17
2018-11-20T07:02:37.657Z,20.17
2018-11-20T07:05:03.641Z,19.35
2018-11-20T07:07:29.829Z,22.93
2018-11-20T07:09:55.695Z,22.00
2018-11-20T07:12:21.710Z,21.52
2018-11-20T07:14:47.720Z,20.12
2018-11-20T07:17:13.719Z,18.00
2018-11-20T07:19:39.726Z,19.85
2018-11-20T07:22:05.745Z,21.23
2018-11-20T07:24:31.774Z,20.10
2018-11-20T07:26:57.814Z,20.92
2018-11-20T07:29:24.634Z,20.67
2018-11-20T07:31:50.683Z,22.23
2018-11-20T07:34:17.447Z,20.88
2018-11-20T07:36:43.555Z,20.92
2018-11-20T07:39:09.469Z,20.27
2018-11-20T07:41:36.575Z,21.73
2018-11-20T07:44:03.032Z,22.85
2018-11-20T07:46:29.021Z,19.55
2018-11-20T07:48:55.089Z,22.73
2018-11-20T07:51:21.103Z,20.55
2018-11-20T07:53:47.140Z,21.25
2018-11-20T07:56:13.214Z,22.48
2018-11-20T07:58:39.182Z,21.90
2018-11-20T08:01:05.239Z,23.23
2018-11-20T08:03:31.263Z,25.52
2018-11-20T08:05:57.281Z,25.70
2018-11-20T08:08:24.051Z,24.77
2018-11-20T08:10:50.077Z,21.30
2018-11-20T08:13:16.089Z,23.17
2018-11-20T08:15:42.095Z,21.77
2018-11-20T08:18:08.851Z,21.30
2018-11-20T08:20:34.855Z,19.23
2018-11-20T08:23:00.866Z,19.12
2018-11-20T08:25:26.947Z,20.43
2018-11-20T08:27:53.631Z,21.55
2018-11-20T08:30:20.375Z,19.67
2018-11-20T08:32:47.138Z,21.30
2018-11-20T08:35:13.883Z,20.00
2018-11-20T08:37:39.922Z,20.70
2018-11-20T08:40:05.982Z,21.45
2018-11-20T08:42:31.989Z,22.77
2018-11-20T08:44:58.029Z,24.60
2018-11-20T08:47:24.031Z,23.85
2018-11-20T08:49:50.044Z,21.35
2018-11-20T08:52:16.068Z,23.02
2018-11-20T08:54:42.134Z,22.20
2018-11-20T08:57:18.129Z,21.52
2018-11-20T08:59:44.134Z,20.67
2018-11-20T09:02:10.971Z,21.87
2018-11-20T09:04:36.920Z,21.35
2018-11-20T09:07:02.951Z,22.40
2018-11-20T09:09:28.975Z,22.50
2018-11-20T09:11:54.996Z,21.87
2018-11-20T09:14:21.011Z,21.33
2018-11-20T09:16:47.029Z,21.47
2018-11-20T09:19:13.025Z,22.25
2018-11-20T09:21:39.042Z,21.07
2018-11-20T09:24:05.069Z,20.60
2018-11-20T09:26:31.084Z,18.80
2018-11-20T09:28:57.109Z,21.70
2018-11-20T09:31:23.113Z,21.85
2018-11-20T09:33:49.142Z,22.70
2018-11-20T09:36:15.149Z,21.67
2018-11-20T09:38:41.184Z,21.15
2018-11-20T09:41:07.217Z,20.00
2018-11-20T09:43:33.233Z,19.92
2018-11-20T09:45:59.261Z,21.73
2018-11-20T09:48:25.294Z,20.30
2018-11-20T09:50:51.313Z,19.90
2018-11-20T09:53:17.310Z,19.90
2018-11-20T09:55:43.323Z,20.73
2018-11-20T09:58:09.324Z,18.90
2018-11-20T10:00:35.349Z,19.58
2018-11-20T10:03:01.390Z,20.65
2018-11-20T10:05:27.401Z,20.60
2018-11-20T10:07:54.604Z,20.10
2018-11-20T10:10:20.861Z,18.50
2018-11-20T10:12:46.923Z,20.37
2018-11-20T10:15:13.003Z,17.47
2018-11-20T10:17:38.937Z,20.53
2018-11-20T10:20:04.970Z,21.20
2018-11-20T10:22:30.970Z,21.62
2018-11-20T10:24:57.022Z,20.87
2018-11-20T10:27:22.989Z,20.53
2018-11-20T10:29:49.027Z,22.60
2018-11-20T10:32:15.033Z,21.45
2018-11-20T10:34:41.102Z,20.90
2018-11-20T10:37:07.095Z,22.50
2018-11-20T10:39:33.176Z,21.02
2018-11-20T10:41:59.431Z,19.97
2018-11-20T10:44:26.221Z,21.70
2018-11-20T10:46:52.984Z,22.02
2018-11-20T10:49:18.986Z,19.20
2018-11-20T10:51:45.766Z,19.97
2018-11-20T10:54:11.789Z,20.83
2018-11-20T10:56:37.850Z,20.60
2018-11-20T10:59:03.884Z,19.83
2018-11-20T11:01:30.636Z,21.50
2018-11-20T11:03:57.513Z,20.48
2018-11-20T11:06:23.564Z,20.62
2018-11-20T11:08:50.246Z,20.83
2018-11-20T11:11:16.300Z,21.37
2018-11-20T11:13:42.298Z,21.70
2018-11-20T11:16:08.303Z,19.80
2018-11-20T11:18:34.364Z,22.13
2018-11-20T11:21:00.413Z,18.77
2018-11-20T11:23:26.371Z,20.98
2018-11-20T11:25:53.131Z,18.25
2018-11-20T11:28:19.118Z,21.13
2018-11-20T11:30:45.163Z,18.57
2018-11-20T11:33:11.164Z,21.40
2018-11-20T11:35:37.176Z,22.17
2018-11-20T11:38:03.208Z,19.48
2018-11-20T11:40:29.241Z,19.40
2018-11-20T11:42:55.234Z,19.33
2018-11-20T11:45:21.239Z,20.97
2018-11-20T11:47:47.265Z,20.33
2018-11-20T11:50:13.275Z,19.58
2018-11-20T11:52:39.292Z,20.67
2018-11-20T11:55:06.085Z,20.43
2018-11-20T11:57:32.060Z,19.52
2018-11-20T11:59:58.086Z,20.97
